sensor_id;sensor_type;location;lat;lon;timestamp;P1;durP1;ratioP1;P2;durP2;ratioP2
45812;SDS011;31519;45.408;10.962;2023-06-22T00:01:04;16.52;;;5.43;;
45812;SDS011;31519;45.408;10.962;2023-06-22T00:03:32;23.50;;;5.70;;
45812;SDS011;31519;45.408;10.962;2023-06-22T00:06:00;20.63;;;6.45;;
45812;SDS011;31519;45.408;10.962;2023-06-22T00:08:28;19.13;;;5.70;;
45812;SDS011;31519;45.408;10.962;2023-06-22T00:10:57;22.83;;;6.55;;
45812;SDS011;31519;45.408;10.962;2023-06-22T00:13:25;16.40;;;5.57;;
45812;SDS011;31519;45.408;10.962;2023-06-22T00:15:53;20.58;;;6.35;;
45812;SDS011;31519;45.408;10.962;2023-06-22T00:18:21;11.75;;;6.10;;
45812;SDS011;31519;45.408;10.962;2023-06-22T00:20:49;16.30;;;6.72;;
45812;SDS011;31519;45.408;10.962;2023-06-22T00:23:18;12.90;;;5.82;;
45812;SDS011;31519;45.408;10.962;2023-06-22T00:25:46;22.25;;;6.13;;
45812;SDS011;31519;45.408;10.962;2023-06-22T00:28:15;20.70;;;6.45;;
45812;SDS011;31519;45.408;10.962;2023-06-22T00:30:43;18.75;;;6.20;;
45812;SDS011;31519;45.408;10.962;2023-06-22T00:33:11;20.95;;;6.18;;
45812;SDS011;31519;45.408;10.962;2023-06-22T00:35:40;12.95;;;5.80;;
45812;SDS011;31519;45.408;10.962;2023-06-22T00:38:09;21.58;;;6.25;;
45812;SDS011;31519;45.408;10.962;2023-06-22T00:40:38;24.63;;;6.18;;
45812;SDS011;31519;45.408;10.962;2023-06-22T00:43:06;17.33;;;6.18;;
45812;SDS011;31519;45.408;10.962;2023-06-22T00:45:35;14.35;;;6.70;;
45812;SDS011;31519;45.408;10.962;2023-06-22T00:48:04;18.75;;;7.65;;
45812;SDS011;31519;45.408;10.962;2023-06-22T00:50:34;21.20;;;6.82;;
45812;SDS011;31519;45.408;10.962;2023-06-22T00:53:07;22.65;;;7.95;;
45812;SDS011;31519;45.408;10.962;2023-06-22T00:55:41;25.15;;;9.48;;
45812;SDS011;31519;45.408;10.962;2023-06-22T00:58:14;27.88;;;10.23;;
45812;SDS011;31519;45.408;10.962;2023-06-22T01:00:43;22.77;;;9.50;;
45812;SDS011;31519;45.408;10.962;2023-06-22T01:03:11;25.50;;;8.70;;
45812;SDS011;31519;45.408;10.962;2023-06-22T01:05:40;24.48;;;7.85;;
45812;SDS011;31519;45.408;10.962;2023-06-22T01:08:12;24.50;;;8.07;;
45812;SDS011;31519;45.408;10.962;2023-06-22T01:11:08;17.17;;;6.90;;
45812;SDS011;31519;45.408;10.962;2023-06-22T01:13:50;16.50;;;6.88;;
45812;SDS011;31519;45.408;10.962;2023-06-22T01:16:23;19.70;;;6.95;;
45812;SDS011;31519;45.408;10.962;2023-06-22T01:18:55;28.33;;;7.50;;
45812;SDS011;31519;45.408;10.962;2023-06-22T01:21:28;15.70;;;6.70;;
45812;SDS011;31519;45.408;10.962;2023-06-22T01:29:29;19.33;;;7.65;;
45812;SDS011;31519;45.408;10.962;2023-06-22T01:32:00;22.75;;;7.97;;
45812;SDS011;31519;45.408;10.962;2023-06-22T01:34:36;34.03;;;9.10;;
45812;SDS011;31519;45.408;10.962;2023-06-22T01:37:07;22.35;;;7.78;;
45812;SDS011;31519;45.408;10.962;2023-06-22T01:39:36;29.77;;;7.28;;
45812;SDS011;31519;45.408;10.962;2023-06-22T01:42:04;15.43;;;7.15;;
45812;SDS011;31519;45.408;10.962;2023-06-22T01:44:34;24.73;;;7.97;;
45812;SDS011;31519;45.408;10.962;2023-06-22T01:47:03;22.27;;;8.23;;
45812;SDS011;31519;45.408;10.962;2023-06-22T01:49:32;20.98;;;7.82;;
45812;SDS011;31519;45.408;10.962;2023-06-22T01:52:00;16.83;;;7.55;;
45812;SDS011;31519;45.408;10.962;2023-06-22T01:54:29;18.05;;;7.30;;
45812;SDS011;31519;45.408;10.962;2023-06-22T01:56:57;19.27;;;7.35;;
45812;SDS011;31519;45.408;10.962;2023-06-22T01:59:28;19.42;;;7.15;;
45812;SDS011;31519;45.408;10.962;2023-06-22T02:02:07;27.23;;;6.47;;
45812;SDS011;31519;45.408;10.962;2023-06-22T02:04:46;19.80;;;6.38;;
45812;SDS011;31519;45.408;10.962;2023-06-22T02:07:19;23.90;;;7.32;;
45812;SDS011;31519;45.408;10.962;2023-06-22T02:09:51;16.65;;;6.95;;
45812;SDS011;31519;45.408;10.962;2023-06-22T02:12:23;18.50;;;6.13;;
45812;SDS011;31519;45.408;10.962;2023-06-22T02:14:55;10.80;;;6.47;;
45812;SDS011;31519;45.408;10.962;2023-06-22T02:17:24;22.90;;;5.78;;
45812;SDS011;31519;45.408;10.962;2023-06-22T02:19:54;27.88;;;7.70;;
45812;SDS011;31519;45.408;10.962;2023-06-22T02:22:22;18.98;;;7.30;;
45812;SDS011;31519;45.408;10.962;2023-06-22T02:24:51;18.92;;;6.63;;
45812;SDS011;31519;45.408;10.962;2023-06-22T02:27:20;14.13;;;6.55;;
45812;SDS011;31519;45.408;10.962;2023-06-22T02:29:49;21.45;;;6.75;;
45812;SDS011;31519;45.408;10.962;2023-06-22T02:32:17;20.15;;;6.63;;
45812;SDS011;31519;45.408;10.962;2023-06-22T02:34:47;20.70;;;6.65;;
45812;SDS011;31519;45.408;10.962;2023-06-22T02:37:16;13.98;;;6.63;;
45812;SDS011;31519;45.408;10.962;2023-06-22T02:39:45;23.55;;;7.13;;
45812;SDS011;31519;45.408;10.962;2023-06-22T02:42:13;28.55;;;7.72;;
45812;SDS011;31519;45.408;10.962;2023-06-22T02:44:42;21.25;;;7.10;;
45812;SDS011;31519;45.408;10.962;2023-06-22T02:47:12;18.13;;;6.47;;
45812;SDS011;31519;45.408;10.962;2023-06-22T02:49:41;20.52;;;6.22;;
45812;SDS011;31519;45.408;10.962;2023-06-22T02:52:10;11.68;;;5.63;;
45812;SDS011;31519;45.408;10.962;2023-06-22T02:54:38;20.75;;;7.25;;
45812;SDS011;31519;45.408;10.962;2023-06-22T02:57:07;22.95;;;8.80;;
45812;SDS011;31519;45.408;10.962;2023-06-22T02:59:42;18.05;;;7.60;;
45812;SDS011;31519;45.408;10.962;2023-06-22T03:02:12;22.52;;;8.05;;
45812;SDS011;31519;45.408;10.962;2023-06-22T03:04:42;19.17;;;6.88;;
45812;SDS011;31519;45.408;10.962;2023-06-22T03:07:11;20.67;;;7.00;;
45812;SDS011;31519;45.408;10.962;2023-06-22T03:09:39;21.80;;;7.10;;
45812;SDS011;31519;45.408;10.962;2023-06-22T03:12:08;25.05;;;7.00;;
45812;SDS011;31519;45.408;10.962;2023-06-22T03:14:52;14.43;;;6.43;;
45812;SDS011;31519;45.408;10.962;2023-06-22T03:17:20;19.08;;;8.82;;
45812;SDS011;31519;45.408;10.962;2023-06-22T03:19:49;19.58;;;6.30;;
45812;SDS011;31519;45.408;10.962;2023-06-22T03:22:17;22.70;;;7.43;;
45812;SDS011;31519;45.408;10.962;2023-06-22T03:24:45;21.17;;;6.63;;
45812;SDS011;31519;45.408;10.962;2023-06-22T03:27:13;22.60;;;7.05;;
45812;SDS011;31519;45.408;10.962;2023-06-22T03:29:41;24.55;;;7.38;;
45812;SDS011;31519;45.408;10.962;2023-06-22T03:32:09;17.52;;;7.50;;
45812;SDS011;31519;45.408;10.962;2023-06-22T03:34:37;32.55;;;8.68;;
45812;SDS011;31519;45.408;10.962;2023-06-22T03:37:05;22.60;;;7.28;;
45812;SDS011;31519;45.408;10.962;2023-06-22T03:39:34;19.27;;;6.70;;
45812;SDS011;31519;45.408;10.962;2023-06-22T03:42:03;14.77;;;6.38;;
45812;SDS011;31519;45.408;10.962;2023-06-22T03:44:32;19.60;;;6.65;;
45812;SDS011;31519;45.408;10.962;2023-06-22T03:47:00;14.23;;;6.85;;
45812;SDS011;31519;45.408;10.962;2023-06-22T03:49:30;17.38;;;6.72;;
45812;SDS011;31519;45.408;10.962;2023-06-22T03:51:58;29.50;;;7.90;;
45812;SDS011;31519;45.408;10.962;2023-06-22T03:54:26;21.52;;;7.05;;
45812;SDS011;31519;45.408;10.962;2023-06-22T03:56:56;19.60;;;7.45;;
45812;SDS011;31519;45.408;10.962;2023-06-22T03:59:26;14.18;;;6.93;;
45812;SDS011;31519;45.408;10.962;2023-06-22T04:01:54;10.60;;;6.55;;
45812;SDS011;31519;45.408;10.962;2023-06-22T04:04:22;26.95;;;6.97;;
45812;SDS011;31519;45.408;10.962;2023-06-22T04:06:51;23.67;;;7.75;;
45812;SDS011;31519;45.408;10.962;2023-06-22T04:09:19;18.88;;;6.70;;
45812;SDS011;31519;45.408;10.962;2023-06-22T04:11:49;12.23;;;7.20;;
45812;SDS011;31519;45.408;10.962;2023-06-22T04:14:17;16.70;;;7.47;;
45812;SDS011;31519;45.408;10.962;2023-06-22T04:16:45;20.67;;;7.82;;
45812;SDS011;31519;45.408;10.962;2023-06-22T04:19:14;29.70;;;8.15;;
45812;SDS011;31519;45.408;10.962;2023-06-22T04:21:45;24.70;;;8.18;;
45812;SDS011;31519;45.408;10.962;2023-06-22T04:24:16;18.67;;;8.02;;
45812;SDS011;31519;45.408;10.962;2023-06-22T04:26:44;30.48;;;7.50;;
45812;SDS011;31519;45.408;10.962;2023-06-22T04:29:15;18.38;;;7.10;;
45812;SDS011;31519;45.408;10.962;2023-06-22T04:31:43;33.50;;;8.13;;
45812;SDS011;31519;45.408;10.962;2023-06-22T04:34:12;24.98;;;7.07;;
45812;SDS011;31519;45.408;10.962;2023-06-22T04:36:43;24.88;;;7.13;;
45812;SDS011;31519;45.408;10.962;2023-06-22T04:39:12;20.35;;;7.53;;
45812;SDS011;31519;45.408;10.962;2023-06-22T04:41:40;23.10;;;8.35;;
45812;SDS011;31519;45.408;10.962;2023-06-22T04:44:16;42.72;;;7.50;;
45812;SDS011;31519;45.408;10.962;2023-06-22T04:46:53;20.25;;;7.80;;
45812;SDS011;31519;45.408;10.962;2023-06-22T04:49:28;24.95;;;8.48;;
45812;SDS011;31519;45.408;10.962;2023-06-22T04:52:00;29.02;;;6.82;;
45812;SDS011;31519;45.408;10.962;2023-06-22T04:54:34;26.55;;;7.80;;
45812;SDS011;31519;45.408;10.962;2023-06-22T04:57:04;25.83;;;7.97;;
45812;SDS011;31519;45.408;10.962;2023-06-22T04:59:38;23.45;;;6.82;;
45812;SDS011;31519;45.408;10.962;2023-06-22T05:02:09;31.42;;;7.25;;
45812;SDS011;31519;45.408;10.962;2023-06-22T05:04:38;27.30;;;7.30;;
45812;SDS011;31519;45.408;10.962;2023-06-22T05:07:07;25.30;;;6.82;;
45812;SDS011;31519;45.408;10.962;2023-06-22T05:09:35;25.10;;;7.40;;
45812;SDS011;31519;45.408;10.962;2023-06-22T05:12:03;18.35;;;7.07;;
45812;SDS011;31519;45.408;10.962;2023-06-22T05:14:35;31.42;;;6.82;;
45812;SDS011;31519;45.408;10.962;2023-06-22T05:17:03;13.82;;;6.70;;
45812;SDS011;31519;45.408;10.962;2023-06-22T05:19:32;21.92;;;7.00;;
45812;SDS011;31519;45.408;10.962;2023-06-22T05:22:01;22.60;;;6.03;;
45812;SDS011;31519;45.408;10.962;2023-06-22T05:24:30;20.63;;;6.53;;
45812;SDS011;31519;45.408;10.962;2023-06-22T05:26:58;22.33;;;7.22;;
45812;SDS011;31519;45.408;10.962;2023-06-22T05:29:26;26.00;;;6.40;;
45812;SDS011;31519;45.408;10.962;2023-06-22T05:31:54;33.22;;;7.07;;
45812;SDS011;31519;45.408;10.962;2023-06-22T05:34:22;29.23;;;7.35;;
45812;SDS011;31519;45.408;10.962;2023-06-22T05:36:50;24.95;;;8.00;;
45812;SDS011;31519;45.408;10.962;2023-06-22T05:39:19;31.65;;;7.28;;
45812;SDS011;31519;45.408;10.962;2023-06-22T05:41:47;29.75;;;7.30;;
45812;SDS011;31519;45.408;10.962;2023-06-22T05:44:15;24.95;;;7.55;;
45812;SDS011;31519;45.408;10.962;2023-06-22T05:46:43;29.67;;;7.63;;
45812;SDS011;31519;45.408;10.962;2023-06-22T05:49:14;24.10;;;7.47;;
45812;SDS011;31519;45.408;10.962;2023-06-22T05:51:42;16.75;;;8.10;;
45812;SDS011;31519;45.408;10.962;2023-06-22T05:54:11;21.75;;;7.55;;
45812;SDS011;31519;45.408;10.962;2023-06-22T05:56:41;26.17;;;7.93;;
45812;SDS011;31519;45.408;10.962;2023-06-22T05:59:09;17.63;;;8.15;;
45812;SDS011;31519;45.408;10.962;2023-06-22T06:01:37;22.13;;;6.97;;
45812;SDS011;31519;45.408;10.962;2023-06-22T06:04:07;20.50;;;7.75;;
45812;SDS011;31519;45.408;10.962;2023-06-22T06:06:35;20.85;;;8.13;;
45812;SDS011;31519;45.408;10.962;2023-06-22T06:09:05;22.67;;;7.90;;
45812;SDS011;31519;45.408;10.962;2023-06-22T06:11:35;28.15;;;7.57;;
45812;SDS011;31519;45.408;10.962;2023-06-22T06:14:03;28.90;;;8.40;;
45812;SDS011;31519;45.408;10.962;2023-06-22T06:16:31;24.63;;;8.38;;
45812;SDS011;31519;45.408;10.962;2023-06-22T06:19:00;26.27;;;8.90;;
45812;SDS011;31519;45.408;10.962;2023-06-22T06:21:28;29.88;;;8.00;;
45812;SDS011;31519;45.408;10.962;2023-06-22T06:23:58;28.52;;;8.50;;
45812;SDS011;31519;45.408;10.962;2023-06-22T06:26:26;22.02;;;7.93;;
45812;SDS011;31519;45.408;10.962;2023-06-22T06:29:00;25.60;;;8.40;;
45812;SDS011;31519;45.408;10.962;2023-06-22T06:31:29;25.98;;;7.15;;
45812;SDS011;31519;45.408;10.962;2023-06-22T06:33:58;24.17;;;8.77;;
45812;SDS011;31519;45.408;10.962;2023-06-22T06:36:26;32.72;;;8.60;;
45812;SDS011;31519;45.408;10.962;2023-06-22T06:38:54;27.00;;;7.85;;
45812;SDS011;31519;45.408;10.962;2023-06-22T06:41:22;20.95;;;8.10;;
45812;SDS011;31519;45.408;10.962;2023-06-22T06:43:51;26.23;;;8.20;;
45812;SDS011;31519;45.408;10.962;2023-06-22T06:46:19;30.40;;;8.32;;
45812;SDS011;31519;45.408;10.962;2023-06-22T06:48:47;29.83;;;8.32;;
45812;SDS011;31519;45.408;10.962;2023-06-22T06:51:15;40.78;;;8.68;;
45812;SDS011;31519;45.408;10.962;2023-06-22T06:53:44;22.40;;;8.65;;
45812;SDS011;31519;45.408;10.962;2023-06-22T06:56:12;35.78;;;9.68;;
45812;SDS011;31519;45.408;10.962;2023-06-22T06:58:41;25.83;;;8.88;;
45812;SDS011;31519;45.408;10.962;2023-06-22T07:01:12;23.15;;;8.75;;
45812;SDS011;31519;45.408;10.962;2023-06-22T07:03:41;41.20;;;9.30;;
45812;SDS011;31519;45.408;10.962;2023-06-22T07:06:09;36.50;;;8.93;;
45812;SDS011;31519;45.408;10.962;2023-06-22T07:08:38;47.13;;;10.38;;
45812;SDS011;31519;45.408;10.962;2023-06-22T07:11:07;45.25;;;9.52;;
45812;SDS011;31519;45.408;10.962;2023-06-22T07:13:35;36.10;;;8.77;;
45812;SDS011;31519;45.408;10.962;2023-06-22T07:16:04;32.72;;;9.18;;
45812;SDS011;31519;45.408;10.962;2023-06-22T07:18:32;49.22;;;11.32;;
45812;SDS011;31519;45.408;10.962;2023-06-22T07:21:00;39.45;;;9.95;;
45812;SDS011;31519;45.408;10.962;2023-06-22T07:23:28;37.58;;;10.05;;
45812;SDS011;31519;45.408;10.962;2023-06-22T07:25:56;38.72;;;10.32;;
45812;SDS011;31519;45.408;10.962;2023-06-22T07:28:25;36.47;;;10.60;;
45812;SDS011;31519;45.408;10.962;2023-06-22T07:30:53;34.58;;;9.93;;
45812;SDS011;31519;45.408;10.962;2023-06-22T07:33:21;36.72;;;9.38;;
45812;SDS011;31519;45.408;10.962;2023-06-22T07:35:49;35.05;;;9.70;;
45812;SDS011;31519;45.408;10.962;2023-06-22T07:38:20;41.78;;;10.25;;
45812;SDS011;31519;45.408;10.962;2023-06-22T07:40:48;41.08;;;10.13;;
45812;SDS011;31519;45.408;10.962;2023-06-22T07:43:16;37.63;;;10.48;;
45812;SDS011;31519;45.408;10.962;2023-06-22T07:45:53;40.72;;;9.77;;
45812;SDS011;31519;45.408;10.962;2023-06-22T07:48:22;55.47;;;11.00;;
45812;SDS011;31519;45.408;10.962;2023-06-22T07:50:50;48.35;;;10.05;;
45812;SDS011;31519;45.408;10.962;2023-06-22T07:53:18;50.83;;;11.45;;
45812;SDS011;31519;45.408;10.962;2023-06-22T07:55:46;47.63;;;11.25;;
45812;SDS011;31519;45.408;10.962;2023-06-22T07:58:16;33.17;;;9.43;;
45812;SDS011;31519;45.408;10.962;2023-06-22T08:00:46;33.67;;;10.13;;
45812;SDS011;31519;45.408;10.962;2023-06-22T08:03:16;43.83;;;10.73;;
45812;SDS011;31519;45.408;10.962;2023-06-22T08:05:45;23.85;;;9.75;;
45812;SDS011;31519;45.408;10.962;2023-06-22T08:08:13;42.95;;;9.57;;
45812;SDS011;31519;45.408;10.962;2023-06-22T08:10:42;29.50;;;9.27;;
45812;SDS011;31519;45.408;10.962;2023-06-22T08:13:10;34.20;;;9.43;;
45812;SDS011;31519;45.408;10.962;2023-06-22T08:15:38;25.58;;;8.68;;
45812;SDS011;31519;45.408;10.962;2023-06-22T08:18:07;31.55;;;10.13;;
45812;SDS011;31519;45.408;10.962;2023-06-22T08:20:35;26.15;;;8.85;;
45812;SDS011;31519;45.408;10.962;2023-06-22T08:23:03;24.15;;;9.02;;
45812;SDS011;31519;45.408;10.962;2023-06-22T08:25:34;38.95;;;8.02;;
45812;SDS011;31519;45.408;10.962;2023-06-22T08:28:03;27.60;;;8.15;;
45812;SDS011;31519;45.408;10.962;2023-06-22T08:30:31;24.92;;;8.02;;
45812;SDS011;31519;45.408;10.962;2023-06-22T08:33:00;20.60;;;8.10;;
45812;SDS011;31519;45.408;10.962;2023-06-22T08:35:28;25.80;;;8.07;;
45812;SDS011;31519;45.408;10.962;2023-06-22T08:37:57;20.60;;;7.80;;
45812;SDS011;31519;45.408;10.962;2023-06-22T08:40:25;25.02;;;7.88;;
45812;SDS011;31519;45.408;10.962;2023-06-22T08:42:53;26.33;;;7.90;;
45812;SDS011;31519;45.408;10.962;2023-06-22T08:45:21;19.60;;;7.47;;
45812;SDS011;31519;45.408;10.962;2023-06-22T08:47:49;34.88;;;9.40;;
45812;SDS011;31519;45.408;10.962;2023-06-22T08:50:17;26.10;;;8.40;;
45812;SDS011;31519;45.408;10.962;2023-06-22T08:52:46;43.83;;;8.10;;
45812;SDS011;31519;45.408;10.962;2023-06-22T08:55:14;27.60;;;8.05;;
45812;SDS011;31519;45.408;10.962;2023-06-22T08:57:42;39.03;;;9.95;;
45812;SDS011;31519;45.408;10.962;2023-06-22T09:00:11;44.65;;;9.50;;
45812;SDS011;31519;45.408;10.962;2023-06-22T09:02:45;37.70;;;8.23;;
45812;SDS011;31519;45.408;10.962;2023-06-22T09:05:14;15.15;;;7.53;;
45812;SDS011;31519;45.408;10.962;2023-06-22T09:07:43;24.13;;;8.13;;
45812;SDS011;31519;45.408;10.962;2023-06-22T09:10:11;26.35;;;8.65;;
45812;SDS011;31519;45.408;10.962;2023-06-22T09:12:39;38.97;;;8.65;;
45812;SDS011;31519;45.408;10.962;2023-06-22T09:15:07;20.90;;;8.10;;
45812;SDS011;31519;45.408;10.962;2023-06-22T09:17:42;23.67;;;7.13;;
45812;SDS011;31519;45.408;10.962;2023-06-22T09:20:11;19.35;;;7.93;;
45812;SDS011;31519;45.408;10.962;2023-06-22T09:22:39;23.52;;;9.25;;
45812;SDS011;31519;45.408;10.962;2023-06-22T09:25:07;23.58;;;9.23;;
45812;SDS011;31519;45.408;10.962;2023-06-22T09:27:36;15.55;;;7.72;;
45812;SDS011;31519;45.408;10.962;2023-06-22T09:30:04;23.92;;;8.27;;
45812;SDS011;31519;45.408;10.962;2023-06-22T09:32:33;26.95;;;9.05;;
45812;SDS011;31519;45.408;10.962;2023-06-22T09:35:04;23.90;;;7.78;;
45812;SDS011;31519;45.408;10.962;2023-06-22T09:37:34;17.38;;;7.18;;
45812;SDS011;31519;45.408;10.962;2023-06-22T09:40:02;36.35;;;9.02;;
45812;SDS011;31519;45.408;10.962;2023-06-22T09:42:36;28.45;;;7.80;;
45812;SDS011;31519;45.408;10.962;2023-06-22T09:45:04;26.83;;;8.00;;
45812;SDS011;31519;45.408;10.962;2023-06-22T09:47:33;27.33;;;7.25;;
45812;SDS011;31519;45.408;10.962;2023-06-22T09:50:01;20.00;;;7.32;;
45812;SDS011;31519;45.408;10.962;2023-06-22T09:52:29;22.25;;;7.75;;
45812;SDS011;31519;45.408;10.962;2023-06-22T09:55:14;19.13;;;6.93;;
45812;SDS011;31519;45.408;10.962;2023-06-22T09:57:44;19.15;;;6.75;;
45812;SDS011;31519;45.408;10.962;2023-06-22T10:00:12;19.90;;;6.10;;
45812;SDS011;31519;45.408;10.962;2023-06-22T10:02:43;17.42;;;6.90;;
45812;SDS011;31519;45.408;10.962;2023-06-22T10:05:12;30.08;;;8.70;;
45812;SDS011;31519;45.408;10.962;2023-06-22T10:07:40;13.80;;;6.78;;
45812;SDS011;31519;45.408;10.962;2023-06-22T10:10:11;19.23;;;6.65;;
45812;SDS011;31519;45.408;10.962;2023-06-22T10:12:41;13.88;;;6.25;;
45812;SDS011;31519;45.408;10.962;2023-06-22T10:15:12;14.60;;;6.47;;
45812;SDS011;31519;45.408;10.962;2023-06-22T10:17:41;24.35;;;6.65;;
45812;SDS011;31519;45.408;10.962;2023-06-22T10:20:10;19.80;;;6.88;;
45812;SDS011;31519;45.408;10.962;2023-06-22T10:22:41;20.55;;;6.55;;
45812;SDS011;31519;45.408;10.962;2023-06-22T10:25:11;16.60;;;7.18;;
45812;SDS011;31519;45.408;10.962;2023-06-22T10:27:40;25.75;;;7.00;;
45812;SDS011;31519;45.408;10.962;2023-06-22T10:30:09;24.52;;;6.05;;
45812;SDS011;31519;45.408;10.962;2023-06-22T10:32:41;21.60;;;7.73;;
45812;SDS011;31519;45.408;10.962;2023-06-22T10:35:11;29.40;;;6.95;;
45812;SDS011;31519;45.408;10.962;2023-06-22T10:37:42;21.63;;;7.13;;
45812;SDS011;31519;45.408;10.962;2023-06-22T10:40:12;20.55;;;7.80;;
45812;SDS011;31519;45.408;10.962;2023-06-22T10:42:41;18.63;;;6.88;;
45812;SDS011;31519;45.408;10.962;2023-06-22T10:45:10;20.55;;;7.25;;
45812;SDS011;31519;45.408;10.962;2023-06-22T10:47:38;16.52;;;6.80;;
45812;SDS011;31519;45.408;10.962;2023-06-22T10:50:07;23.35;;;7.70;;
45812;SDS011;31519;45.408;10.962;2023-06-22T10:52:35;30.13;;;7.57;;
45812;SDS011;31519;45.408;10.962;2023-06-22T10:55:04;31.75;;;8.10;;
45812;SDS011;31519;45.408;10.962;2023-06-22T10:57:32;13.95;;;6.80;;
45812;SDS011;31519;45.408;10.962;2023-06-22T11:00:00;22.83;;;6.90;;
45812;SDS011;31519;45.408;10.962;2023-06-22T11:02:28;28.33;;;8.00;;
45812;SDS011;31519;45.408;10.962;2023-06-22T11:04:56;24.10;;;7.72;;
45812;SDS011;31519;45.408;10.962;2023-06-22T11:07:28;23.30;;;7.65;;
45812;SDS011;31519;45.408;10.962;2023-06-22T11:09:57;22.50;;;7.25;;
45812;SDS011;31519;45.408;10.962;2023-06-22T11:12:25;27.30;;;7.70;;
45812;SDS011;31519;45.408;10.962;2023-06-22T11:14:53;19.30;;;7.43;;
45812;SDS011;31519;45.408;10.962;2023-06-22T11:17:23;18.02;;;6.45;;
45812;SDS011;31519;45.408;10.962;2023-06-22T11:19:51;21.27;;;5.55;;
45812;SDS011;31519;45.408;10.962;2023-06-22T11:22:20;14.73;;;6.43;;
45812;SDS011;31519;45.408;10.962;2023-06-22T11:24:48;33.67;;;7.25;;
45812;SDS011;31519;45.408;10.962;2023-06-22T11:27:16;23.60;;;6.65;;
45812;SDS011;31519;45.408;10.962;2023-06-22T11:29:44;17.75;;;6.90;;
45812;SDS011;31519;45.408;10.962;2023-06-22T11:32:12;29.23;;;7.20;;
45812;SDS011;31519;45.408;10.962;2023-06-22T11:34:41;21.30;;;6.82;;
45812;SDS011;31519;45.408;10.962;2023-06-22T11:37:10;21.17;;;6.47;;
45812;SDS011;31519;45.408;10.962;2023-06-22T11:39:38;22.27;;;6.07;;
45812;SDS011;31519;45.408;10.962;2023-06-22T11:42:14;13.98;;;5.97;;
45812;SDS011;31519;45.408;10.962;2023-06-22T11:44:42;20.48;;;6.28;;
45812;SDS011;31519;45.408;10.962;2023-06-22T11:47:12;21.40;;;7.50;;
45812;SDS011;31519;45.408;10.962;2023-06-22T11:49:40;32.60;;;9.18;;
45812;SDS011;31519;45.408;10.962;2023-06-22T11:52:09;32.25;;;7.60;;
45812;SDS011;31519;45.408;10.962;2023-06-22T11:54:37;19.90;;;7.57;;
45812;SDS011;31519;45.408;10.962;2023-06-22T11:57:06;20.80;;;7.15;;
45812;SDS011;31519;45.408;10.962;2023-06-22T11:59:34;19.05;;;6.72;;
45812;SDS011;31519;45.408;10.962;2023-06-22T12:02:02;16.08;;;7.25;;
45812;SDS011;31519;45.408;10.962;2023-06-22T12:04:33;20.42;;;7.13;;
45812;SDS011;31519;45.408;10.962;2023-06-22T12:07:01;18.48;;;6.72;;
45812;SDS011;31519;45.408;10.962;2023-06-22T12:09:30;22.27;;;6.13;;
45812;SDS011;31519;45.408;10.962;2023-06-22T12:11:58;21.38;;;7.18;;
45812;SDS011;31519;45.408;10.962;2023-06-22T12:14:26;20.65;;;7.75;;
45812;SDS011;31519;45.408;10.962;2023-06-22T12:16:57;17.95;;;6.95;;
45812;SDS011;31519;45.408;10.962;2023-06-22T12:19:25;34.05;;;6.78;;
45812;SDS011;31519;45.408;10.962;2023-06-22T12:21:53;25.10;;;6.57;;
45812;SDS011;31519;45.408;10.962;2023-06-22T12:24:21;26.17;;;7.13;;
45812;SDS011;31519;45.408;10.962;2023-06-22T12:26:50;25.42;;;7.38;;
45812;SDS011;31519;45.408;10.962;2023-06-22T12:29:20;20.23;;;7.00;;
45812;SDS011;31519;45.408;10.962;2023-06-22T12:31:49;10.95;;;6.25;;
45812;SDS011;31519;45.408;10.962;2023-06-22T12:34:17;18.33;;;6.35;;
45812;SDS011;31519;45.408;10.962;2023-06-22T12:36:45;14.32;;;6.50;;
45812;SDS011;31519;45.408;10.962;2023-06-22T12:39:15;23.65;;;6.10;;
45812;SDS011;31519;45.408;10.962;2023-06-22T12:41:44;26.23;;;6.95;;
45812;SDS011;31519;45.408;10.962;2023-06-22T12:44:12;19.90;;;7.80;;
45812;SDS011;31519;45.408;10.962;2023-06-22T12:46:40;20.70;;;8.00;;
45812;SDS011;31519;45.408;10.962;2023-06-22T12:49:08;15.55;;;6.40;;
45812;SDS011;31519;45.408;10.962;2023-06-22T12:51:39;27.58;;;7.03;;
45812;SDS011;31519;45.408;10.962;2023-06-22T12:54:10;18.35;;;7.00;;
45812;SDS011;31519;45.408;10.962;2023-06-22T12:56:39;20.25;;;7.45;;
45812;SDS011;31519;45.408;10.962;2023-06-22T12:59:07;22.67;;;6.65;;
45812;SDS011;31519;45.408;10.962;2023-06-22T13:01:35;24.13;;;6.93;;
45812;SDS011;31519;45.408;10.962;2023-06-22T13:04:04;29.20;;;7.97;;
45812;SDS011;31519;45.408;10.962;2023-06-22T13:06:33;20.38;;;6.90;;
45812;SDS011;31519;45.408;10.962;2023-06-22T13:09:01;20.30;;;7.07;;
45812;SDS011;31519;45.408;10.962;2023-06-22T13:11:32;14.95;;;6.13;;
45812;SDS011;31519;45.408;10.962;2023-06-22T13:14:00;21.25;;;5.70;;
45812;SDS011;31519;45.408;10.962;2023-06-22T13:16:31;16.77;;;6.78;;
45812;SDS011;31519;45.408;10.962;2023-06-22T13:18:59;28.10;;;6.53;;
45812;SDS011;31519;45.408;10.962;2023-06-22T13:21:27;15.73;;;5.55;;
45812;SDS011;31519;45.408;10.962;2023-06-22T13:23:55;17.98;;;5.97;;
45812;SDS011;31519;45.408;10.962;2023-06-22T13:26:24;17.98;;;6.18;;
45812;SDS011;31519;45.408;10.962;2023-06-22T13:28:52;18.02;;;5.50;;
45812;SDS011;31519;45.408;10.962;2023-06-22T13:31:21;19.63;;;5.65;;
45812;SDS011;31519;45.408;10.962;2023-06-22T13:33:49;19.20;;;6.32;;
45812;SDS011;31519;45.408;10.962;2023-06-22T13:36:20;16.27;;;6.18;;
45812;SDS011;31519;45.408;10.962;2023-06-22T13:38:49;16.20;;;6.13;;
45812;SDS011;31519;45.408;10.962;2023-06-22T13:41:17;15.98;;;6.70;;
45812;SDS011;31519;45.408;10.962;2023-06-22T13:43:45;14.35;;;5.60;;
45812;SDS011;31519;45.408;10.962;2023-06-22T13:46:13;25.60;;;6.45;;
45812;SDS011;31519;45.408;10.962;2023-06-22T13:48:41;24.52;;;6.07;;
45812;SDS011;31519;45.408;10.962;2023-06-22T13:51:10;17.38;;;5.22;;
45812;SDS011;31519;45.408;10.962;2023-06-22T13:53:37;19.80;;;5.60;;
45812;SDS011;31519;45.408;10.962;2023-06-22T13:56:06;17.35;;;5.70;;
45812;SDS011;31519;45.408;10.962;2023-06-22T13:58:34;21.77;;;5.97;;
45812;SDS011;31519;45.408;10.962;2023-06-22T14:01:02;20.08;;;5.97;;
45812;SDS011;31519;45.408;10.962;2023-06-22T14:03:30;19.27;;;5.97;;
45812;SDS011;31519;45.408;10.962;2023-06-22T14:05:59;13.45;;;5.90;;
45812;SDS011;31519;45.408;10.962;2023-06-22T14:08:27;21.90;;;6.05;;
45812;SDS011;31519;45.408;10.962;2023-06-22T14:10:58;26.48;;;6.53;;
45812;SDS011;31519;45.408;10.962;2023-06-22T14:13:26;59.28;;;7.68;;
45812;SDS011;31519;45.408;10.962;2023-06-22T14:15:54;12.82;;;5.88;;
45812;SDS011;31519;45.408;10.962;2023-06-22T14:18:22;18.35;;;6.03;;
45812;SDS011;31519;45.408;10.962;2023-06-22T14:20:50;16.58;;;6.43;;
45812;SDS011;31519;45.408;10.962;2023-06-22T14:23:18;14.52;;;5.85;;
45812;SDS011;31519;45.408;10.962;2023-06-22T14:25:47;13.27;;;5.43;;
45812;SDS011;31519;45.408;10.962;2023-06-22T14:28:15;18.65;;;6.43;;
45812;SDS011;31519;45.408;10.962;2023-06-22T14:30:44;21.15;;;6.97;;
45812;SDS011;31519;45.408;10.962;2023-06-22T14:33:12;13.55;;;7.20;;
45812;SDS011;31519;45.408;10.962;2023-06-22T14:35:41;25.30;;;6.88;;
45812;SDS011;31519;45.408;10.962;2023-06-22T14:38:09;24.33;;;6.25;;